sensor_id;sensor_type;location;lat;lon;timestamp;P1;durP1;ratioP1;P2;durP2;ratioP2
69789;SDS011;57064;52.046;4.800;2023-02-15T00:01:28;99.78;;;38.17;;
69789;SDS011;57064;52.046;4.800;2023-02-15T00:03:55;85.82;;;37.83;;
69789;SDS011;57064;52.046;4.800;2023-02-15T00:06:21;96.28;;;38.67;;
69789;SDS011;57064;52.046;4.800;2023-02-15T00:08:47;105.75;;;41.50;;
69789;SDS011;57064;52.046;4.800;2023-02-15T00:11:16;104.63;;;40.05;;
69789;SDS011;57064;52.046;4.800;2023-02-15T00:14:04;95.72;;;36.72;;
69789;SDS011;57064;52.046;4.800;2023-02-15T00:16:34;182.43;;;42.60;;
69789;SDS011;57064;52.046;4.800;2023-02-15T00:19:00;422.30;;;66.15;;
69789;SDS011;57064;52.046;4.800;2023-02-15T00:21:30;392.63;;;56.95;;
69789;SDS011;57064;52.046;4.800;2023-02-15T00:23:58;388.42;;;66.32;;
69789;SDS011;57064;52.046;4.800;2023-02-15T00:26:25;266.50;;;48.70;;
69789;SDS011;57064;52.046;4.800;2023-02-15T00:28:51;280.40;;;49.40;;
69789;SDS011;57064;52.046;4.800;2023-02-15T00:31:18;313.60;;;53.63;;
69789;SDS011;57064;52.046;4.800;2023-02-15T00:33:44;104.85;;;32.05;;
69789;SDS011;57064;52.046;4.800;2023-02-15T00:36:11;86.43;;;32.60;;
69789;SDS011;57064;52.046;4.800;2023-02-15T00:38:38;66.07;;;29.85;;
69789;SDS011;57064;52.046;4.800;2023-02-15T00:41:05;83.47;;;32.00;;
69789;SDS011;57064;52.046;4.800;2023-02-15T00:43:32;98.80;;;38.92;;
69789;SDS011;57064;52.046;4.800;2023-02-15T00:45:59;120.70;;;41.05;;
69789;SDS011;57064;52.046;4.800;2023-02-15T00:48:26;112.40;;;43.08;;
69789;SDS011;57064;52.046;4.800;2023-02-15T00:50:53;104.05;;;41.78;;
69789;SDS011;57064;52.046;4.800;2023-02-15T00:53:21;116.07;;;42.00;;
69789;SDS011;57064;52.046;4.800;2023-02-15T00:55:48;106.55;;;41.00;;
69789;SDS011;57064;52.046;4.800;2023-02-15T00:58:14;111.97;;;42.25;;
69789;SDS011;57064;52.046;4.800;2023-02-15T01:00:42;111.57;;;41.03;;
69789;SDS011;57064;52.046;4.800;2023-02-15T01:03:10;101.85;;;41.47;;
69789;SDS011;57064;52.046;4.800;2023-02-15T01:05:36;97.15;;;40.42;;
69789;SDS011;57064;52.046;4.800;2023-02-15T01:08:03;112.28;;;41.45;;
69789;SDS011;57064;52.046;4.800;2023-02-15T01:10:29;93.32;;;38.58;;
69789;SDS011;57064;52.046;4.800;2023-02-15T01:12:56;102.88;;;41.05;;
69789;SDS011;57064;52.046;4.800;2023-02-15T01:15:22;102.78;;;40.75;;
69789;SDS011;57064;52.046;4.800;2023-02-15T01:17:49;93.93;;;38.33;;
69789;SDS011;57064;52.046;4.800;2023-02-15T01:20:22;95.10;;;40.53;;
69789;SDS011;57064;52.046;4.800;2023-02-15T01:22:51;92.57;;;38.53;;
69789;SDS011;57064;52.046;4.800;2023-02-15T01:25:19;91.75;;;37.55;;
69789;SDS011;57064;52.046;4.800;2023-02-15T01:27:47;94.25;;;37.47;;
69789;SDS011;57064;52.046;4.800;2023-02-15T01:30:13;85.70;;;36.83;;
69789;SDS011;57064;52.046;4.800;2023-02-15T01:32:41;86.25;;;38.03;;
69789;SDS011;57064;52.046;4.800;2023-02-15T01:35:08;87.32;;;37.15;;
69789;SDS011;57064;52.046;4.800;2023-02-15T01:37:35;91.32;;;36.92;;
69789;SDS011;57064;52.046;4.800;2023-02-15T01:40:05;83.95;;;36.95;;
69789;SDS011;57064;52.046;4.800;2023-02-15T01:42:33;89.95;;;38.70;;
69789;SDS011;57064;52.046;4.800;2023-02-15T01:45:02;92.90;;;39.30;;
69789;SDS011;57064;52.046;4.800;2023-02-15T01:47:33;95.22;;;36.58;;
69789;SDS011;57064;52.046;4.800;2023-02-15T01:53:08;93.00;;;36.08;;
69789;SDS011;57064;52.046;4.800;2023-02-15T01:55:55;94.82;;;36.17;;
69789;SDS011;57064;52.046;4.800;2023-02-15T01:58:31;94.82;;;39.65;;
69789;SDS011;57064;52.046;4.800;2023-02-15T02:00:59;107.45;;;38.58;;
69789;SDS011;57064;52.046;4.800;2023-02-15T02:06:32;114.45;;;43.80;;
69789;SDS011;57064;52.046;4.800;2023-02-15T02:08:59;114.68;;;44.35;;
69789;SDS011;57064;52.046;4.800;2023-02-15T02:11:26;118.05;;;43.42;;
69789;SDS011;57064;52.046;4.800;2023-02-15T02:13:52;112.22;;;41.40;;
69789;SDS011;57064;52.046;4.800;2023-02-15T02:30:31;126.38;;;42.70;;
69789;SDS011;57064;52.046;4.800;2023-02-15T02:36:19;107.85;;;40.78;;
69789;SDS011;57064;52.046;4.800;2023-02-15T02:47:12;73.90;;;28.63;;
69789;SDS011;57064;52.046;4.800;2023-02-15T02:49:51;68.95;;;29.60;;
69789;SDS011;57064;52.046;4.800;2023-02-15T02:55:02;81.05;;;32.83;;
69789;SDS011;57064;52.046;4.800;2023-02-15T02:57:31;85.45;;;35.35;;
69789;SDS011;57064;52.046;4.800;2023-02-15T02:59:58;86.25;;;37.53;;
69789;SDS011;57064;52.046;4.800;2023-02-15T03:02:29;100.18;;;38.42;;
69789;SDS011;57064;52.046;4.800;2023-02-15T03:05:01;97.38;;;37.33;;
69789;SDS011;57064;52.046;4.800;2023-02-15T03:07:30;91.10;;;36.78;;
69789;SDS011;57064;52.046;4.800;2023-02-15T03:09:58;94.72;;;36.55;;
69789;SDS011;57064;52.046;4.800;2023-02-15T03:12:28;95.13;;;35.33;;
69789;SDS011;57064;52.046;4.800;2023-02-15T03:15:06;84.38;;;31.55;;
69789;SDS011;57064;52.046;4.800;2023-02-15T03:17:37;152.05;;;31.52;;
69789;SDS011;57064;52.046;4.800;2023-02-15T03:20:09;90.57;;;28.77;;
69789;SDS011;57064;52.046;4.800;2023-02-15T03:22:48;163.88;;;33.95;;
69789;SDS011;57064;52.046;4.800;2023-02-15T03:25:22;135.70;;;27.98;;
69789;SDS011;57064;52.046;4.800;2023-02-15T03:27:55;163.55;;;31.02;;
69789;SDS011;57064;52.046;4.800;2023-02-15T03:30:26;61.05;;;25.48;;
69789;SDS011;57064;52.046;4.800;2023-02-15T03:32:54;93.57;;;25.27;;
69789;SDS011;57064;52.046;4.800;2023-02-15T03:35:23;154.60;;;29.13;;
69789;SDS011;57064;52.046;4.800;2023-02-15T03:37:59;101.40;;;26.55;;
69789;SDS011;57064;52.046;4.800;2023-02-15T03:40:31;56.17;;;26.77;;
69789;SDS011;57064;52.046;4.800;2023-02-15T03:46:11;71.65;;;28.90;;
69789;SDS011;57064;52.046;4.800;2023-02-15T03:48:58;79.50;;;32.85;;
69789;SDS011;57064;52.046;4.800;2023-02-15T03:51:34;84.68;;;33.78;;
69789;SDS011;57064;52.046;4.800;2023-02-15T03:54:12;86.28;;;34.75;;
69789;SDS011;57064;52.046;4.800;2023-02-15T03:57:07;89.65;;;33.58;;
69789;SDS011;57064;52.046;4.800;2023-02-15T03:59:58;78.75;;;32.88;;
69789;SDS011;57064;52.046;4.800;2023-02-15T04:02:52;85.95;;;36.10;;
69789;SDS011;57064;52.046;4.800;2023-02-15T04:05:39;83.28;;;33.40;;
69789;SDS011;57064;52.046;4.800;2023-02-15T04:08:08;85.28;;;34.28;;
69789;SDS011;57064;52.046;4.800;2023-02-15T04:10:34;77.28;;;34.05;;
69789;SDS011;57064;52.046;4.800;2023-02-15T04:13:19;91.32;;;34.05;;
69789;SDS011;57064;52.046;4.800;2023-02-15T04:15:48;81.97;;;33.75;;
69789;SDS011;57064;52.046;4.800;2023-02-15T04:18:31;82.07;;;33.60;;
69789;SDS011;57064;52.046;4.800;2023-02-15T04:21:17;85.80;;;35.40;;
69789;SDS011;57064;52.046;4.800;2023-02-15T04:24:03;81.28;;;33.30;;
69789;SDS011;57064;52.046;4.800;2023-02-15T04:26:48;100.35;;;34.45;;
69789;SDS011;57064;52.046;4.800;2023-02-15T04:29:17;96.20;;;34.13;;
69789;SDS011;57064;52.046;4.800;2023-02-15T04:31:44;92.78;;;36.00;;
69789;SDS011;57064;52.046;4.800;2023-02-15T04:34:10;99.30;;;38.20;;
69789;SDS011;57064;52.046;4.800;2023-02-15T04:36:37;105.10;;;39.40;;
69789;SDS011;57064;52.046;4.800;2023-02-15T04:39:03;107.50;;;38.60;;
69789;SDS011;57064;52.046;4.800;2023-02-15T04:41:30;93.32;;;37.80;;
69789;SDS011;57064;52.046;4.800;2023-02-15T04:43:57;107.40;;;40.83;;
69789;SDS011;57064;52.046;4.800;2023-02-15T04:46:24;123.30;;;44.72;;
69789;SDS011;57064;52.046;4.800;2023-02-15T04:48:50;125.57;;;41.33;;
69789;SDS011;57064;52.046;4.800;2023-02-15T04:51:16;114.75;;;40.83;;
69789;SDS011;57064;52.046;4.800;2023-02-15T04:53:42;111.32;;;40.67;;
69789;SDS011;57064;52.046;4.800;2023-02-15T04:56:08;116.75;;;40.13;;
69789;SDS011;57064;52.046;4.800;2023-02-15T04:58:34;120.22;;;42.05;;
69789;SDS011;57064;52.046;4.800;2023-02-15T05:01:01;108.40;;;39.88;;
69789;SDS011;57064;52.046;4.800;2023-02-15T05:03:28;113.28;;;42.50;;
69789;SDS011;57064;52.046;4.800;2023-02-15T05:05:54;120.18;;;41.25;;
69789;SDS011;57064;52.046;4.800;2023-02-15T05:08:20;123.65;;;43.15;;
69789;SDS011;57064;52.046;4.800;2023-02-15T05:10:49;118.18;;;41.67;;
69789;SDS011;57064;52.046;4.800;2023-02-15T05:13:15;127.63;;;42.90;;
69789;SDS011;57064;52.046;4.800;2023-02-15T05:15:45;118.30;;;40.00;;
69789;SDS011;57064;52.046;4.800;2023-02-15T05:18:13;118.50;;;42.47;;
69789;SDS011;57064;52.046;4.800;2023-02-15T05:20:39;148.52;;;44.70;;
69789;SDS011;57064;52.046;4.800;2023-02-15T05:23:05;122.05;;;43.67;;
69789;SDS011;57064;52.046;4.800;2023-02-15T05:25:31;132.23;;;42.72;;
69789;SDS011;57064;52.046;4.800;2023-02-15T05:28:16;126.32;;;42.78;;
69789;SDS011;57064;52.046;4.800;2023-02-15T05:30:45;134.55;;;42.72;;
69789;SDS011;57064;52.046;4.800;2023-02-15T05:33:34;125.68;;;41.83;;
69789;SDS011;57064;52.046;4.800;2023-02-15T05:36:01;125.82;;;42.85;;
69789;SDS011;57064;52.046;4.800;2023-02-15T05:38:28;105.40;;;39.97;;
69789;SDS011;57064;52.046;4.800;2023-02-15T05:40:54;126.55;;;45.72;;
69789;SDS011;57064;52.046;4.800;2023-02-15T05:43:21;128.18;;;43.33;;
69789;SDS011;57064;52.046;4.800;2023-02-15T05:45:48;132.68;;;41.75;;
69789;SDS011;57064;52.046;4.800;2023-02-15T05:48:15;133.70;;;42.08;;
69789;SDS011;57064;52.046;4.800;2023-02-15T05:50:42;121.03;;;41.13;;
69789;SDS011;57064;52.046;4.800;2023-02-15T05:53:08;120.55;;;44.45;;
69789;SDS011;57064;52.046;4.800;2023-02-15T05:55:37;123.78;;;41.08;;
69789;SDS011;57064;52.046;4.800;2023-02-15T05:58:04;130.48;;;43.15;;
69789;SDS011;57064;52.046;4.800;2023-02-15T06:00:30;121.30;;;42.40;;
69789;SDS011;57064;52.046;4.800;2023-02-15T06:02:56;119.75;;;42.85;;
69789;SDS011;57064;52.046;4.800;2023-02-15T06:05:23;134.60;;;46.50;;
69789;SDS011;57064;52.046;4.800;2023-02-15T06:07:49;124.18;;;46.17;;
69789;SDS011;57064;52.046;4.800;2023-02-15T06:10:15;134.38;;;45.83;;
69789;SDS011;57064;52.046;4.800;2023-02-15T06:12:41;133.88;;;48.08;;
69789;SDS011;57064;52.046;4.800;2023-02-15T06:15:08;137.50;;;47.28;;
69789;SDS011;57064;52.046;4.800;2023-02-15T06:17:35;145.57;;;46.05;;
69789;SDS011;57064;52.046;4.800;2023-02-15T06:20:01;128.05;;;43.33;;
69789;SDS011;57064;52.046;4.800;2023-02-15T06:22:27;135.40;;;43.53;;
69789;SDS011;57064;52.046;4.800;2023-02-15T06:24:54;133.60;;;46.00;;
69789;SDS011;57064;52.046;4.800;2023-02-15T06:27:20;136.73;;;42.90;;
69789;SDS011;57064;52.046;4.800;2023-02-15T06:29:46;127.35;;;43.97;;
69789;SDS011;57064;52.046;4.800;2023-02-15T06:32:12;145.80;;;42.47;;
69789;SDS011;57064;52.046;4.800;2023-02-15T06:34:38;139.35;;;43.88;;
69789;SDS011;57064;52.046;4.800;2023-02-15T06:37:04;147.63;;;45.80;;
69789;SDS011;57064;52.046;4.800;2023-02-15T06:39:30;126.63;;;42.40;;
69789;SDS011;57064;52.046;4.800;2023-02-15T06:41:57;129.57;;;42.17;;
69789;SDS011;57064;52.046;4.800;2023-02-15T06:44:23;141.07;;;43.75;;
69789;SDS011;57064;52.046;4.800;2023-02-15T06:46:49;143.02;;;44.67;;
69789;SDS011;57064;52.046;4.800;2023-02-15T06:49:15;153.05;;;46.70;;
69789;SDS011;57064;52.046;4.800;2023-02-15T06:51:41;133.40;;;43.28;;
69789;SDS011;57064;52.046;4.800;2023-02-15T06:54:07;130.15;;;43.25;;
69789;SDS011;57064;52.046;4.800;2023-02-15T06:56:33;140.27;;;43.17;;
69789;SDS011;57064;52.046;4.800;2023-02-15T06:59:00;120.53;;;42.92;;
69789;SDS011;57064;52.046;4.800;2023-02-15T07:01:26;128.50;;;41.83;;
69789;SDS011;57064;52.046;4.800;2023-02-15T07:03:52;143.48;;;44.33;;
69789;SDS011;57064;52.046;4.800;2023-02-15T07:06:18;126.38;;;44.72;;
69789;SDS011;57064;52.046;4.800;2023-02-15T07:08:44;139.15;;;43.80;;
69789;SDS011;57064;52.046;4.800;2023-02-15T07:11:10;140.00;;;45.22;;
69789;SDS011;57064;52.046;4.800;2023-02-15T07:13:55;143.02;;;46.20;;
69789;SDS011;57064;52.046;4.800;2023-02-15T07:16:21;137.02;;;45.90;;
69789;SDS011;57064;52.046;4.800;2023-02-15T07:18:47;148.07;;;48.00;;
69789;SDS011;57064;52.046;4.800;2023-02-15T07:21:13;155.40;;;47.35;;
69789;SDS011;57064;52.046;4.800;2023-02-15T07:23:40;136.20;;;48.40;;
69789;SDS011;57064;52.046;4.800;2023-02-15T07:26:06;140.50;;;46.75;;
69789;SDS011;57064;52.046;4.800;2023-02-15T07:28:33;139.75;;;48.50;;
69789;SDS011;57064;52.046;4.800;2023-02-15T07:31:03;146.02;;;50.35;;
69789;SDS011;57064;52.046;4.800;2023-02-15T07:33:32;162.55;;;50.80;;
69789;SDS011;57064;52.046;4.800;2023-02-15T07:36:00;172.70;;;52.13;;
69789;SDS011;57064;52.046;4.800;2023-02-15T07:38:32;161.10;;;49.72;;
69789;SDS011;57064;52.046;4.800;2023-02-15T07:40:59;148.45;;;51.92;;
69789;SDS011;57064;52.046;4.800;2023-02-15T07:43:27;166.80;;;52.35;;
69789;SDS011;57064;52.046;4.800;2023-02-15T07:45:54;158.88;;;51.70;;
69789;SDS011;57064;52.046;4.800;2023-02-15T07:48:25;167.82;;;50.88;;
69789;SDS011;57064;52.046;4.800;2023-02-15T07:50:51;154.43;;;48.38;;
69789;SDS011;57064;52.046;4.800;2023-02-15T07:53:18;167.13;;;53.67;;
69789;SDS011;57064;52.046;4.800;2023-02-15T07:55:44;167.73;;;52.22;;
69789;SDS011;57064;52.046;4.800;2023-02-15T07:58:10;166.50;;;52.78;;
69789;SDS011;57064;52.046;4.800;2023-02-15T08:00:36;174.90;;;52.80;;
69789;SDS011;57064;52.046;4.800;2023-02-15T08:03:24;182.13;;;54.75;;
69789;SDS011;57064;52.046;4.800;2023-02-15T08:05:58;175.43;;;53.70;;
69789;SDS011;57064;52.046;4.800;2023-02-15T08:08:25;163.23;;;52.72;;
69789;SDS011;57064;52.046;4.800;2023-02-15T08:11:29;154.18;;;52.00;;
69789;SDS011;57064;52.046;4.800;2023-02-15T08:14:01;184.20;;;55.65;;
69789;SDS011;57064;52.046;4.800;2023-02-15T08:16:37;158.52;;;53.53;;
69789;SDS011;57064;52.046;4.800;2023-02-15T08:19:22;160.10;;;53.05;;
69789;SDS011;57064;52.046;4.800;2023-02-15T08:21:51;163.23;;;50.90;;
69789;SDS011;57064;52.046;4.800;2023-02-15T08:24:20;168.18;;;55.20;;
69789;SDS011;57064;52.046;4.800;2023-02-15T08:26:48;152.63;;;51.50;;
69789;SDS011;57064;52.046;4.800;2023-02-15T08:29:15;172.77;;;53.40;;
69789;SDS011;57064;52.046;4.800;2023-02-15T08:31:44;164.98;;;52.70;;
69789;SDS011;57064;52.046;4.800;2023-02-15T08:34:12;162.27;;;54.08;;
69789;SDS011;57064;52.046;4.800;2023-02-15T08:36:40;161.02;;;55.72;;
69789;SDS011;57064;52.046;4.800;2023-02-15T08:39:06;182.88;;;56.95;;
69789;SDS011;57064;52.046;4.800;2023-02-15T08:41:36;170.82;;;54.13;;
69789;SDS011;57064;52.046;4.800;2023-02-15T08:44:04;171.95;;;55.22;;
69789;SDS011;57064;52.046;4.800;2023-02-15T08:46:32;157.70;;;54.22;;
69789;SDS011;57064;52.046;4.800;2023-02-15T08:48:59;170.85;;;57.55;;
69789;SDS011;57064;52.046;4.800;2023-02-15T08:51:27;167.07;;;54.78;;
69789;SDS011;57064;52.046;4.800;2023-02-15T08:53:56;166.45;;;54.10;;
69789;SDS011;57064;52.046;4.800;2023-02-15T08:56:25;162.40;;;54.47;;
69789;SDS011;57064;52.046;4.800;2023-02-15T08:58:55;176.75;;;57.15;;
69789;SDS011;57064;52.046;4.800;2023-02-15T09:01:22;176.02;;;55.72;;
69789;SDS011;57064;52.046;4.800;2023-02-15T09:03:51;190.20;;;57.20;;
69789;SDS011;57064;52.046;4.800;2023-02-15T09:06:21;176.27;;;59.58;;
69789;SDS011;57064;52.046;4.800;2023-02-15T09:08:50;178.45;;;58.50;;
69789;SDS011;57064;52.046;4.800;2023-02-15T09:11:22;176.35;;;59.60;;
69789;SDS011;57064;52.046;4.800;2023-02-15T09:16:21;194.88;;;61.80;;
69789;SDS011;57064;52.046;4.800;2023-02-15T09:18:49;193.15;;;61.60;;
69789;SDS011;57064;52.046;4.800;2023-02-15T09:21:17;183.30;;;60.50;;
69789;SDS011;57064;52.046;4.800;2023-02-15T09:23:46;185.15;;;63.92;;
69789;SDS011;57064;52.046;4.800;2023-02-15T09:26:15;203.93;;;64.68;;
69789;SDS011;57064;52.046;4.800;2023-02-15T09:28:45;177.10;;;62.70;;
69789;SDS011;57064;52.046;4.800;2023-02-15T09:31:13;186.60;;;63.17;;
69789;SDS011;57064;52.046;4.800;2023-02-15T09:33:41;189.88;;;61.05;;
69789;SDS011;57064;52.046;4.800;2023-02-15T09:38:53;204.50;;;66.32;;
69789;SDS011;57064;52.046;4.800;2023-02-15T09:41:28;208.43;;;69.43;;
69789;SDS011;57064;52.046;4.800;2023-02-15T09:52:34;204.05;;;69.70;;
69789;SDS011;57064;52.046;4.800;2023-02-15T09:57:37;192.93;;;66.68;;
69789;SDS011;57064;52.046;4.800;2023-02-15T10:05:53;185.90;;;67.50;;
69789;SDS011;57064;52.046;4.800;2023-02-15T10:13:24;184.35;;;65.82;;
69789;SDS011;57064;52.046;4.800;2023-02-15T10:18:45;197.05;;;70.35;;
69789;SDS011;57064;52.046;4.800;2023-02-15T10:21:19;195.57;;;66.15;;
69789;SDS011;57064;52.046;4.800;2023-02-15T10:26:31;182.85;;;65.78;;
69789;SDS011;57064;52.046;4.800;2023-02-15T10:31:55;169.10;;;65.63;;
69789;SDS011;57064;52.046;4.800;2023-02-15T10:34:43;166.93;;;64.15;;
69789;SDS011;57064;52.046;4.800;2023-02-15T10:45:46;162.80;;;64.85;;
69789;SDS011;57064;52.046;4.800;2023-02-15T10:54:32;174.27;;;64.28;;
69789;SDS011;57064;52.046;4.800;2023-02-15T10:57:21;169.13;;;64.78;;
69789;SDS011;57064;52.046;4.800;2023-02-15T11:05:53;177.15;;;68.72;;
69789;SDS011;57064;52.046;4.800;2023-02-15T11:08:14;175.60;;;66.88;;
69789;SDS011;57064;52.046;4.800;2023-02-15T11:13:19;168.98;;;69.88;;
69789;SDS011;57064;52.046;4.800;2023-02-15T11:15:52;168.57;;;66.43;;
69789;SDS011;57064;52.046;4.800;2023-02-15T11:21:04;169.02;;;68.82;;
69789;SDS011;57064;52.046;4.800;2023-02-15T11:23:35;173.65;;;69.25;;
69789;SDS011;57064;52.046;4.800;2023-02-15T11:26:09;168.45;;;68.47;;
69789;SDS011;57064;52.046;4.800;2023-02-15T11:28:41;167.35;;;66.63;;
69789;SDS011;57064;52.046;4.800;2023-02-15T11:31:21;156.82;;;64.95;;
69789;SDS011;57064;52.046;4.800;2023-02-15T11:33:57;161.18;;;65.05;;
69789;SDS011;57064;52.046;4.800;2023-02-15T11:36:37;154.30;;;62.45;;
69789;SDS011;57064;52.046;4.800;2023-02-15T11:39:14;152.93;;;66.72;;
69789;SDS011;57064;52.046;4.800;2023-02-15T11:41:46;147.95;;;62.70;;
69789;SDS011;57064;52.046;4.800;2023-02-15T11:44:27;140.57;;;59.10;;
69789;SDS011;57064;52.046;4.800;2023-02-15T11:47:09;126.20;;;57.03;;
69789;SDS011;57064;52.046;4.800;2023-02-15T11:49:36;108.68;;;49.80;;
69789;SDS011;57064;52.046;4.800;2023-02-15T11:52:06;88.40;;;43.58;;
69789;SDS011;57064;52.046;4.800;2023-02-15T11:54:42;81.60;;;38.70;;
69789;SDS011;57064;52.046;4.800;2023-02-15T11:57:14;75.28;;;35.95;;
69789;SDS011;57064;52.046;4.800;2023-02-15T12:00:06;76.10;;;36.17;;
69789;SDS011;57064;52.046;4.800;2023-02-15T12:02:39;69.15;;;34.65;;
69789;SDS011;57064;52.046;4.800;2023-02-15T12:05:12;74.32;;;36.08;;
69789;SDS011;57064;52.046;4.800;2023-02-15T12:10:47;68.90;;;35.10;;
69789;SDS011;57064;52.046;4.800;2023-02-15T12:13:30;67.50;;;33.83;;
69789;SDS011;57064;52.046;4.800;2023-02-15T12:15:57;69.47;;;33.85;;
69789;SDS011;57064;52.046;4.800;2023-02-15T12:18:40;64.18;;;33.03;;
69789;SDS011;57064;52.046;4.800;2023-02-15T12:21:12;64.50;;;32.67;;
69789;SDS011;57064;52.046;4.800;2023-02-15T12:23:48;61.60;;;30.90;;
69789;SDS011;57064;52.046;4.800;2023-02-15T12:26:27;70.07;;;31.45;;
69789;SDS011;57064;52.046;4.800;2023-02-15T12:28:57;61.08;;;30.95;;
69789;SDS011;57064;52.046;4.800;2023-02-15T12:33:59;60.42;;;32.38;;
69789;SDS011;57064;52.046;4.800;2023-02-15T12:36:40;61.60;;;32.78;;
69789;SDS011;57064;52.046;4.800;2023-02-15T12:41:37;61.40;;;30.95;;
69789;SDS011;57064;52.046;4.800;2023-02-15T12:44:19;60.95;;;31.92;;
69789;SDS011;57064;52.046;4.800;2023-02-15T12:46:59;59.95;;;30.55;;
69789;SDS011;57064;52.046;4.800;2023-02-15T12:49:26;57.33;;;30.17;;
69789;SDS011;57064;52.046;4.800;2023-02-15T12:52:00;63.22;;;31.75;;
69789;SDS011;57064;52.046;4.800;2023-02-15T12:56:57;52.80;;;27.02;;
69789;SDS011;57064;52.046;4.800;2023-02-15T12:59:24;56.13;;;29.13;;
69789;SDS011;57064;52.046;4.800;2023-02-15T13:01:51;57.50;;;30.55;;
69789;SDS011;57064;52.046;4.800;2023-02-15T13:06:49;62.03;;;30.02;;
69789;SDS011;57064;52.046;4.800;2023-02-15T13:09:51;57.58;;;30.33;;
69789;SDS011;57064;52.046;4.800;2023-02-15T13:12:26;52.78;;;29.55;;
69789;SDS011;57064;52.046;4.800;2023-02-15T13:14:58;56.58;;;29.30;;
69789;SDS011;57064;52.046;4.800;2023-02-15T13:17:28;55.50;;;28.77;;
69789;SDS011;57064;52.046;4.800;2023-02-15T13:20:06;55.95;;;27.88;;
69789;SDS011;57064;52.046;4.800;2023-02-15T13:22:44;56.22;;;28.15;;
69789;SDS011;57064;52.046;4.800;2023-02-15T13:25:19;49.10;;;26.65;;
69789;SDS011;57064;52.046;4.800;2023-02-15T13:28:05;52.58;;;28.38;;
69789;SDS011;57064;52.046;4.800;2023-02-15T13:30:38;52.10;;;27.38;;
69789;SDS011;57064;52.046;4.800;2023-02-15T13:33:27;55.35;;;27.55;;
69789;SDS011;57064;52.046;4.800;2023-02-15T13:41:30;54.20;;;29.15;;
69789;SDS011;57064;52.046;4.800;2023-02-15T14:03:33;46.40;;;24.23;;
69789;SDS011;57064;52.046;4.800;2023-02-15T14:23:11;63.65;;;32.70;;
69789;SDS011;57064;52.046;4.800;2023-02-15T14:26:15;60.05;;;28.73;;
69789;SDS011;57064;52.046;4.800;2023-02-15T14:28:57;53.92;;;28.50;;
69789;SDS011;57064;52.046;4.800;2023-02-15T14:31:35;49.92;;;27.63;;
69789;SDS011;57064;52.046;4.800;2023-02-15T14:34:04;59.40;;;28.90;;
69789;SDS011;57064;52.046;4.800;2023-02-15T14:36:42;56.13;;;29.25;;
69789;SDS011;57064;52.046;4.800;2023-02-15T14:42:20;55.92;;;27.67;;
69789;SDS011;57064;52.046;4.800;2023-02-15T14:45:12;52.05;;;25.65;;
69789;SDS011;57064;52.046;4.800;2023-02-15T14:47:44;57.80;;;27.20;;
69789;SDS011;57064;52.046;4.800;2023-02-15T14:55:40;60.50;;;28.85;;
69789;SDS011;57064;52.046;4.800;2023-02-15T14:58:15;52.47;;;26.70;;
69789;SDS011;57064;52.046;4.800;2023-02-15T15:00:41;56.25;;;27.30;;
69789;SDS011;57064;52.046;4.800;2023-02-15T15:06:20;52.13;;;26.75;;
69789;SDS011;57064;52.046;4.800;2023-02-15T15:09:12;60.83;;;28.98;;
69789;SDS011;57064;52.046;4.800;2023-02-15T15:11:48;61.50;;;29.60;;
69789;SDS011;57064;52.046;4.800;2023-02-15T15:17:00;56.75;;;27.63;;
69789;SDS011;57064;52.046;4.800;2023-02-15T15:22:21;53.95;;;27.42;;
69789;SDS011;57064;52.046;4.800;2023-02-15T15:24:55;53.80;;;28.63;;
69789;SDS011;57064;52.046;4.800;2023-02-15T15:35:33;54.35;;;28.60;;
69789;SDS011;57064;52.046;4.800;2023-02-15T15:41:28;56.83;;;28.98;;
69789;SDS011;57064;52.046;4.800;2023-02-15T15:49:42;56.35;;;28.02;;
69789;SDS011;57064;52.046;4.800;2023-02-15T15:52:18;55.35;;;28.27;;
69789;SDS011;57064;52.046;4.800;2023-02-15T15:54:46;51.13;;;27.38;;
69789;SDS011;57064;52.046;4.800;2023-02-15T15:57:30;56.05;;;28.92;;
69789;SDS011;57064;52.046;4.800;2023-02-15T15:59:59;62.33;;;29.95;;
69789;SDS011;57064;52.046;4.800;2023-02-15T16:02:26;73.03;;;32.53;;
69789;SDS011;57064;52.046;4.800;2023-02-15T16:04:53;66.28;;;32.30;;
69789;SDS011;57064;52.046;4.800;2023-02-15T16:09:55;63.60;;;30.98;;
69789;SDS011;57064;52.046;4.800;2023-02-15T16:12:35;60.35;;;28.55;;
69789;SDS011;57064;52.046;4.800;2023-02-15T16:15:13;58.70;;;30.55;;
69789;SDS011;57064;52.046;4.800;2023-02-15T16:17:45;62.20;;;31.70;;
69789;SDS011;57064;52.046;4.800;2023-02-15T16:20:20;66.57;;;32.67;;
69789;SDS011;57064;52.046;4.800;2023-02-15T16:22:49;68.05;;;31.88;;
69789;SDS011;57064;52.046;4.800;2023-02-15T16:28:08;67.35;;;31.15;;
69789;SDS011;57064;52.046;4.800;2023-02-15T16:30:37;67.95;;;32.88;;
69789;SDS011;57064;52.046;4.800;2023-02-15T16:33:11;71.18;;;32.65;;
69789;SDS011;57064;52.046;4.800;2023-02-15T16:35:55;67.00;;;31.58;;
69789;SDS011;57064;52.046;4.800;2023-02-15T16:41:06;72.43;;;32.80;;
69789;SDS011;57064;52.046;4.800;2023-02-15T16:43:34;72.40;;;34.17;;
69789;SDS011;57064;52.046;4.800;2023-02-15T16:46:06;69.30;;;31.55;;
69789;SDS011;57064;52.046;4.800;2023-02-15T16:48:40;73.47;;;33.58;;
69789;SDS011;57064;52.046;4.800;2023-02-15T16:51:11;67.78;;;31.75;;
69789;SDS011;57064;52.046;4.800;2023-02-15T16:53:46;77.00;;;34.95;;
69789;SDS011;57064;52.046;4.800;2023-02-15T16:56:13;69.15;;;32.47;;
69789;SDS011;57064;52.046;4.800;2023-02-15T16:58:41;74.72;;;33.50;;
69789;SDS011;57064;52.046;4.800;2023-02-15T17:01:10;68.32;;;33.00;;
69789;SDS011;57064;52.046;4.800;2023-02-15T17:03:39;69.60;;;33.78;;
69789;SDS011;57064;52.046;4.800;2023-02-15T17:06:18;73.25;;;34.35;;
69789;SDS011;57064;52.046;4.800;2023-02-15T17:08:52;72.32;;;32.70;;
69789;SDS011;57064;52.046;4.800;2023-02-15T17:11:34;73.57;;;36.55;;
69789;SDS011;57064;52.046;4.800;2023-02-15T17:16:32;75.88;;;35.35;;
69789;SDS011;57064;52.046;4.800;2023-02-15T17:19:01;81.50;;;37.88;;
69789;SDS011;57064;52.046;4.800;2023-02-15T17:21:33;79.72;;;37.00;;
69789;SDS011;57064;52.046;4.800;2023-02-15T17:24:06;76.72;;;35.10;;
69789;SDS011;57064;52.046;4.800;2023-02-15T17:26:40;75.88;;;34.58;;
69789;SDS011;57064;52.046;4.800;2023-02-15T17:29:17;74.40;;;33.25;;
69789;SDS011;57064;52.046;4.800;2023-02-15T17:31:48;78.25;;;34.65;;
69789;SDS011;57064;52.046;4.800;2023-02-15T17:42:52;85.57;;;36.33;;
69789;SDS011;57064;52.046;4.800;2023-02-15T17:45:19;79.60;;;36.20;;
69789;SDS011;57064;52.046;4.800;2023-02-15T17:47:46;75.70;;;36.78;;
69789;SDS011;57064;52.046;4.800;2023-02-15T17:50:21;80.85;;;36.08;;
69789;SDS011;57064;52.046;4.800;2023-02-15T17:52:49;74.57;;;35.83;;
69789;SDS011;57064;52.046;4.800;2023-02-15T17:55:18;73.53;;;35.55;;
69789;SDS011;57064;52.046;4.800;2023-02-15T17:58:07;78.47;;;35.15;;
69789;SDS011;57064;52.046;4.800;2023-02-15T18:00:39;66.85;;;31.80;;
69789;SDS011;57064;52.046;4.800;2023-02-15T18:03:39;74.03;;;34.05;;
69789;SDS011;57064;52.046;4.800;2023-02-15T18:06:25;71.10;;;32.92;;
69789;SDS011;57064;52.046;4.800;2023-02-15T18:09:11;77.70;;;34.72;;